sensor_id;sensor_type;location;lat;lon;timestamp;P1;durP1;ratioP1;P2;durP2;ratioP2
26622;SDS011;14254;50.968;5.366;2023-06-22T00:00:54;18.73;;;7.15;;
26622;SDS011;14254;50.968;5.366;2023-06-22T00:03:21;16.83;;;5.97;;
26622;SDS011;14254;50.968;5.366;2023-06-22T00:05:49;24.25;;;6.88;;
26622;SDS011;14254;50.968;5.366;2023-06-22T00:08:15;22.00;;;6.93;;
26622;SDS011;14254;50.968;5.366;2023-06-22T00:10:42;19.00;;;7.05;;
26622;SDS011;14254;50.968;5.366;2023-06-22T00:13:08;27.55;;;8.63;;
26622;SDS011;14254;50.968;5.366;2023-06-22T00:15:35;27.23;;;9.20;;
26622;SDS011;14254;50.968;5.366;2023-06-22T00:18:01;46.70;;;11.60;;
26622;SDS011;14254;50.968;5.366;2023-06-22T00:20:27;72.18;;;16.50;;
26622;SDS011;14254;50.968;5.366;2023-06-22T00:22:57;69.07;;;17.58;;
26622;SDS011;14254;50.968;5.366;2023-06-22T00:25:23;87.57;;;21.00;;
26622;SDS011;14254;50.968;5.366;2023-06-22T00:27:49;86.47;;;21.77;;
26622;SDS011;14254;50.968;5.366;2023-06-22T00:30:16;68.50;;;16.33;;
26622;SDS011;14254;50.968;5.366;2023-06-22T00:32:42;31.67;;;10.55;;
26622;SDS011;14254;50.968;5.366;2023-06-22T00:35:09;20.98;;;7.18;;
26622;SDS011;14254;50.968;5.366;2023-06-22T00:37:38;67.55;;;15.63;;
26622;SDS011;14254;50.968;5.366;2023-06-22T00:40:07;22.15;;;7.82;;
26622;SDS011;14254;50.968;5.366;2023-06-22T00:42:36;78.13;;;16.50;;
26622;SDS011;14254;50.968;5.366;2023-06-22T00:45:01;90.50;;;21.50;;
26622;SDS011;14254;50.968;5.366;2023-06-22T00:47:27;86.90;;;20.08;;
26622;SDS011;14254;50.968;5.366;2023-06-22T00:49:53;89.35;;;22.90;;
26622;SDS011;14254;50.968;5.366;2023-06-22T00:52:20;107.70;;;22.95;;
26622;SDS011;14254;50.968;5.366;2023-06-22T00:54:51;98.45;;;24.00;;
26622;SDS011;14254;50.968;5.366;2023-06-22T00:57:17;109.30;;;24.63;;
26622;SDS011;14254;50.968;5.366;2023-06-22T00:59:45;100.38;;;23.65;;
26622;SDS011;14254;50.968;5.366;2023-06-22T01:02:12;94.43;;;21.88;;
26622;SDS011;14254;50.968;5.366;2023-06-22T01:04:38;91.65;;;21.80;;
26622;SDS011;14254;50.968;5.366;2023-06-22T01:12:58;77.40;;;18.58;;
26622;SDS011;14254;50.968;5.366;2023-06-22T01:15:28;77.33;;;17.47;;
26622;SDS011;14254;50.968;5.366;2023-06-22T01:17:58;69.28;;;16.63;;
26622;SDS011;14254;50.968;5.366;2023-06-22T01:20:27;61.10;;;14.25;;
26622;SDS011;14254;50.968;5.366;2023-06-22T01:26:14;58.55;;;14.30;;
26622;SDS011;14254;50.968;5.366;2023-06-22T01:28:50;48.08;;;13.27;;
26622;SDS011;14254;50.968;5.366;2023-06-22T01:31:19;37.38;;;11.95;;
26622;SDS011;14254;50.968;5.366;2023-06-22T01:33:55;44.55;;;11.52;;
26622;SDS011;14254;50.968;5.366;2023-06-22T01:36:24;38.03;;;10.27;;
26622;SDS011;14254;50.968;5.366;2023-06-22T01:38:51;46.92;;;11.48;;
26622;SDS011;14254;50.968;5.366;2023-06-22T01:41:17;31.75;;;9.95;;
26622;SDS011;14254;50.968;5.366;2023-06-22T01:43:44;33.63;;;10.35;;
26622;SDS011;14254;50.968;5.366;2023-06-22T01:46:10;34.85;;;11.30;;
26622;SDS011;14254;50.968;5.366;2023-06-22T01:48:37;37.25;;;10.52;;
26622;SDS011;14254;50.968;5.366;2023-06-22T01:51:04;28.98;;;9.88;;
26622;SDS011;14254;50.968;5.366;2023-06-22T01:53:30;33.80;;;9.75;;
26622;SDS011;14254;50.968;5.366;2023-06-22T01:55:56;28.00;;;9.40;;
26622;SDS011;14254;50.968;5.366;2023-06-22T01:58:23;23.30;;;9.52;;
26622;SDS011;14254;50.968;5.366;2023-06-22T02:01:10;28.52;;;11.48;;
26622;SDS011;14254;50.968;5.366;2023-06-22T02:03:41;29.70;;;10.18;;
26622;SDS011;14254;50.968;5.366;2023-06-22T02:06:23;24.73;;;10.43;;
26622;SDS011;14254;50.968;5.366;2023-06-22T02:08:54;27.17;;;8.80;;
26622;SDS011;14254;50.968;5.366;2023-06-22T02:11:24;27.08;;;9.40;;
26622;SDS011;14254;50.968;5.366;2023-06-22T02:13:52;30.45;;;9.27;;
26622;SDS011;14254;50.968;5.366;2023-06-22T02:16:18;32.97;;;11.15;;
26622;SDS011;14254;50.968;5.366;2023-06-22T02:18:48;22.85;;;10.38;;
26622;SDS011;14254;50.968;5.366;2023-06-22T02:21:20;21.95;;;11.10;;
26622;SDS011;14254;50.968;5.366;2023-06-22T02:23:46;21.27;;;10.23;;
26622;SDS011;14254;50.968;5.366;2023-06-22T02:26:12;25.58;;;10.65;;
26622;SDS011;14254;50.968;5.366;2023-06-22T02:28:38;24.10;;;11.88;;
26622;SDS011;14254;50.968;5.366;2023-06-22T02:31:04;24.00;;;11.43;;
26622;SDS011;14254;50.968;5.366;2023-06-22T02:33:30;20.45;;;10.70;;
26622;SDS011;14254;50.968;5.366;2023-06-22T02:35:55;19.23;;;10.85;;
26622;SDS011;14254;50.968;5.366;2023-06-22T02:38:21;20.45;;;12.25;;
26622;SDS011;14254;50.968;5.366;2023-06-22T02:40:49;23.27;;;12.77;;
26622;SDS011;14254;50.968;5.366;2023-06-22T02:43:15;23.33;;;13.93;;
26622;SDS011;14254;50.968;5.366;2023-06-22T02:45:41;19.83;;;13.30;;
26622;SDS011;14254;50.968;5.366;2023-06-22T02:48:07;19.98;;;13.73;;
26622;SDS011;14254;50.968;5.366;2023-06-22T02:50:33;23.00;;;13.60;;
26622;SDS011;14254;50.968;5.366;2023-06-22T02:52:58;24.40;;;14.30;;
26622;SDS011;14254;50.968;5.366;2023-06-22T02:55:24;23.17;;;13.90;;
26622;SDS011;14254;50.968;5.366;2023-06-22T02:57:50;25.30;;;14.55;;
26622;SDS011;14254;50.968;5.366;2023-06-22T03:00:17;24.25;;;14.10;;
26622;SDS011;14254;50.968;5.366;2023-06-22T03:02:48;26.77;;;16.10;;
26622;SDS011;14254;50.968;5.366;2023-06-22T03:05:14;25.55;;;17.13;;
26622;SDS011;14254;50.968;5.366;2023-06-22T03:07:46;26.27;;;16.50;;
26622;SDS011;14254;50.968;5.366;2023-06-22T03:10:12;32.10;;;16.95;;
26622;SDS011;14254;50.968;5.366;2023-06-22T03:12:39;28.80;;;17.60;;
26622;SDS011;14254;50.968;5.366;2023-06-22T03:15:08;28.02;;;17.75;;
26622;SDS011;14254;50.968;5.366;2023-06-22T03:17:35;27.08;;;18.15;;
26622;SDS011;14254;50.968;5.366;2023-06-22T03:20:03;25.02;;;17.83;;
26622;SDS011;14254;50.968;5.366;2023-06-22T03:22:34;26.63;;;19.10;;
26622;SDS011;14254;50.968;5.366;2023-06-22T03:25:01;26.83;;;18.20;;
26622;SDS011;14254;50.968;5.366;2023-06-22T03:27:26;26.60;;;19.00;;
26622;SDS011;14254;50.968;5.366;2023-06-22T03:29:52;30.77;;;19.15;;
26622;SDS011;14254;50.968;5.366;2023-06-22T03:32:18;26.75;;;18.95;;
26622;SDS011;14254;50.968;5.366;2023-06-22T03:34:43;28.23;;;18.70;;
26622;SDS011;14254;50.968;5.366;2023-06-22T03:37:12;23.55;;;17.33;;
26622;SDS011;14254;50.968;5.366;2023-06-22T03:39:40;25.70;;;18.95;;
26622;SDS011;14254;50.968;5.366;2023-06-22T03:42:06;26.08;;;19.33;;
26622;SDS011;14254;50.968;5.366;2023-06-22T03:44:33;25.98;;;19.30;;
26622;SDS011;14254;50.968;5.366;2023-06-22T03:47:01;29.30;;;19.08;;
26622;SDS011;14254;50.968;5.366;2023-06-22T03:49:29;27.75;;;18.58;;
26622;SDS011;14254;50.968;5.366;2023-06-22T03:51:55;25.23;;;18.35;;
26622;SDS011;14254;50.968;5.366;2023-06-22T03:54:21;28.48;;;20.67;;
26622;SDS011;14254;50.968;5.366;2023-06-22T03:56:46;29.75;;;20.02;;
26622;SDS011;14254;50.968;5.366;2023-06-22T03:59:12;27.83;;;19.52;;
26622;SDS011;14254;50.968;5.366;2023-06-22T04:01:38;26.27;;;19.80;;
26622;SDS011;14254;50.968;5.366;2023-06-22T04:04:03;24.50;;;19.77;;
26622;SDS011;14254;50.968;5.366;2023-06-22T04:06:30;26.60;;;20.02;;
26622;SDS011;14254;50.968;5.366;2023-06-22T04:08:56;26.85;;;20.38;;
26622;SDS011;14254;50.968;5.366;2023-06-22T04:11:21;27.33;;;19.52;;
26622;SDS011;14254;50.968;5.366;2023-06-22T04:13:47;31.92;;;20.55;;
26622;SDS011;14254;50.968;5.366;2023-06-22T04:16:14;26.73;;;17.73;;
26622;SDS011;14254;50.968;5.366;2023-06-22T04:18:39;24.83;;;18.23;;
26622;SDS011;14254;50.968;5.366;2023-06-22T04:21:06;21.70;;;17.35;;
26622;SDS011;14254;50.968;5.366;2023-06-22T04:23:32;21.88;;;17.38;;
26622;SDS011;14254;50.968;5.366;2023-06-22T04:25:58;27.33;;;19.77;;
26622;SDS011;14254;50.968;5.366;2023-06-22T04:28:24;27.00;;;19.30;;
26622;SDS011;14254;50.968;5.366;2023-06-22T04:30:50;23.48;;;18.48;;
26622;SDS011;14254;50.968;5.366;2023-06-22T04:33:16;24.45;;;18.60;;
26622;SDS011;14254;50.968;5.366;2023-06-22T04:35:44;30.42;;;19.70;;
26622;SDS011;14254;50.968;5.366;2023-06-22T04:38:11;28.33;;;18.73;;
26622;SDS011;14254;50.968;5.366;2023-06-22T04:40:38;20.83;;;16.70;;
26622;SDS011;14254;50.968;5.366;2023-06-22T04:43:04;24.02;;;17.35;;
26622;SDS011;14254;50.968;5.366;2023-06-22T04:45:31;26.17;;;19.50;;
26622;SDS011;14254;50.968;5.366;2023-06-22T04:47:57;26.25;;;19.17;;
26622;SDS011;14254;50.968;5.366;2023-06-22T04:50:23;24.15;;;19.23;;
26622;SDS011;14254;50.968;5.366;2023-06-22T04:52:50;24.55;;;19.33;;
26622;SDS011;14254;50.968;5.366;2023-06-22T04:55:16;27.45;;;19.13;;
26622;SDS011;14254;50.968;5.366;2023-06-22T04:57:46;28.73;;;21.92;;
26622;SDS011;14254;50.968;5.366;2023-06-22T05:00:14;31.75;;;23.67;;
26622;SDS011;14254;50.968;5.366;2023-06-22T05:02:43;26.52;;;21.60;;
26622;SDS011;14254;50.968;5.366;2023-06-22T05:05:13;33.53;;;22.23;;
26622;SDS011;14254;50.968;5.366;2023-06-22T05:07:40;32.40;;;21.38;;
26622;SDS011;14254;50.968;5.366;2023-06-22T05:10:10;28.52;;;22.17;;
26622;SDS011;14254;50.968;5.366;2023-06-22T05:12:37;30.67;;;22.35;;
26622;SDS011;14254;50.968;5.366;2023-06-22T05:15:04;30.98;;;23.25;;
26622;SDS011;14254;50.968;5.366;2023-06-22T05:17:33;34.13;;;25.25;;
26622;SDS011;14254;50.968;5.366;2023-06-22T05:20:00;42.55;;;28.30;;
26622;SDS011;14254;50.968;5.366;2023-06-22T05:22:27;38.63;;;27.08;;
26622;SDS011;14254;50.968;5.366;2023-06-22T05:24:52;39.67;;;28.23;;
26622;SDS011;14254;50.968;5.366;2023-06-22T05:27:18;40.00;;;28.98;;
26622;SDS011;14254;50.968;5.366;2023-06-22T05:29:44;46.92;;;31.58;;
26622;SDS011;14254;50.968;5.366;2023-06-22T05:32:09;39.70;;;29.08;;
26622;SDS011;14254;50.968;5.366;2023-06-22T05:34:35;41.63;;;29.95;;
26622;SDS011;14254;50.968;5.366;2023-06-22T05:37:01;39.72;;;29.83;;
26622;SDS011;14254;50.968;5.366;2023-06-22T05:39:27;41.92;;;28.85;;
26622;SDS011;14254;50.968;5.366;2023-06-22T05:41:53;39.92;;;29.98;;
26622;SDS011;14254;50.968;5.366;2023-06-22T05:44:19;46.40;;;32.70;;
26622;SDS011;14254;50.968;5.366;2023-06-22T05:46:44;42.03;;;31.02;;
26622;SDS011;14254;50.968;5.366;2023-06-22T05:49:11;44.08;;;31.10;;
26622;SDS011;14254;50.968;5.366;2023-06-22T05:51:37;43.47;;;30.25;;
26622;SDS011;14254;50.968;5.366;2023-06-22T05:54:04;37.35;;;29.65;;
26622;SDS011;14254;50.968;5.366;2023-06-22T05:56:29;44.05;;;29.35;;
26622;SDS011;14254;50.968;5.366;2023-06-22T05:58:55;41.17;;;30.08;;
26622;SDS011;14254;50.968;5.366;2023-06-22T06:01:21;38.80;;;26.58;;
26622;SDS011;14254;50.968;5.366;2023-06-22T06:03:47;39.58;;;28.13;;
26622;SDS011;14254;50.968;5.366;2023-06-22T06:06:14;39.70;;;29.23;;
26622;SDS011;14254;50.968;5.366;2023-06-22T06:08:40;35.38;;;27.25;;
26622;SDS011;14254;50.968;5.366;2023-06-22T06:11:06;37.83;;;27.83;;
26622;SDS011;14254;50.968;5.366;2023-06-22T06:13:32;38.17;;;28.10;;
26622;SDS011;14254;50.968;5.366;2023-06-22T06:15:57;40.30;;;28.90;;
26622;SDS011;14254;50.968;5.366;2023-06-22T06:18:24;37.25;;;28.73;;
26622;SDS011;14254;50.968;5.366;2023-06-22T06:20:50;36.03;;;27.05;;
26622;SDS011;14254;50.968;5.366;2023-06-22T06:23:16;35.25;;;26.23;;
26622;SDS011;14254;50.968;5.366;2023-06-22T06:25:41;44.03;;;28.83;;
26622;SDS011;14254;50.968;5.366;2023-06-22T06:28:07;37.40;;;27.52;;
26622;SDS011;14254;50.968;5.366;2023-06-22T06:30:33;36.40;;;26.73;;
26622;SDS011;14254;50.968;5.366;2023-06-22T06:32:59;39.15;;;26.52;;
26622;SDS011;14254;50.968;5.366;2023-06-22T06:35:25;37.00;;;25.95;;
26622;SDS011;14254;50.968;5.366;2023-06-22T06:37:51;35.50;;;27.55;;
26622;SDS011;14254;50.968;5.366;2023-06-22T06:40:17;36.60;;;25.83;;
26622;SDS011;14254;50.968;5.366;2023-06-22T06:42:47;38.58;;;28.92;;
26622;SDS011;14254;50.968;5.366;2023-06-22T06:47:43;33.85;;;26.65;;
26622;SDS011;14254;50.968;5.366;2023-06-22T06:50:10;33.88;;;26.25;;
26622;SDS011;14254;50.968;5.366;2023-06-22T06:52:36;37.05;;;27.60;;
26622;SDS011;14254;50.968;5.366;2023-06-22T06:55:02;37.90;;;27.60;;
26622;SDS011;14254;50.968;5.366;2023-06-22T06:57:29;34.60;;;26.63;;
26622;SDS011;14254;50.968;5.366;2023-06-22T06:59:58;38.30;;;27.52;;
26622;SDS011;14254;50.968;5.366;2023-06-22T07:02:24;38.33;;;26.98;;
26622;SDS011;14254;50.968;5.366;2023-06-22T07:04:52;35.63;;;25.15;;
26622;SDS011;14254;50.968;5.366;2023-06-22T07:07:20;38.47;;;27.00;;
26622;SDS011;14254;50.968;5.366;2023-06-22T07:09:46;41.88;;;27.33;;
26622;SDS011;14254;50.968;5.366;2023-06-22T07:12:11;40.25;;;25.75;;
26622;SDS011;14254;50.968;5.366;2023-06-22T07:14:37;38.08;;;25.15;;
26622;SDS011;14254;50.968;5.366;2023-06-22T07:17:03;50.00;;;25.95;;
26622;SDS011;14254;50.968;5.366;2023-06-22T07:19:29;35.47;;;24.38;;
26622;SDS011;14254;50.968;5.366;2023-06-22T07:21:56;37.42;;;24.33;;
26622;SDS011;14254;50.968;5.366;2023-06-22T07:24:22;35.50;;;25.10;;
26622;SDS011;14254;50.968;5.366;2023-06-22T07:26:48;32.13;;;23.85;;
26622;SDS011;14254;50.968;5.366;2023-06-22T07:29:15;34.00;;;23.80;;
26622;SDS011;14254;50.968;5.366;2023-06-22T07:31:45;39.67;;;24.27;;
26622;SDS011;14254;50.968;5.366;2023-06-22T07:34:12;39.30;;;24.98;;
26622;SDS011;14254;50.968;5.366;2023-06-22T07:36:37;40.55;;;25.58;;
26622;SDS011;14254;50.968;5.366;2023-06-22T07:39:03;38.33;;;25.20;;
26622;SDS011;14254;50.968;5.366;2023-06-22T07:41:29;33.20;;;24.10;;
26622;SDS011;14254;50.968;5.366;2023-06-22T07:43:55;41.65;;;25.08;;
26622;SDS011;14254;50.968;5.366;2023-06-22T07:46:21;34.42;;;23.88;;
26622;SDS011;14254;50.968;5.366;2023-06-22T07:48:47;34.17;;;23.13;;
26622;SDS011;14254;50.968;5.366;2023-06-22T07:51:13;37.63;;;25.15;;
26622;SDS011;14254;50.968;5.366;2023-06-22T07:53:40;34.20;;;23.75;;
26622;SDS011;14254;50.968;5.366;2023-06-22T07:56:07;36.58;;;24.52;;
26622;SDS011;14254;50.968;5.366;2023-06-22T07:58:35;33.85;;;24.92;;
26622;SDS011;14254;50.968;5.366;2023-06-22T08:01:01;36.28;;;25.35;;
26622;SDS011;14254;50.968;5.366;2023-06-22T08:03:27;37.08;;;26.52;;
26622;SDS011;14254;50.968;5.366;2023-06-22T08:05:52;34.55;;;24.65;;
26622;SDS011;14254;50.968;5.366;2023-06-22T08:08:18;35.28;;;24.15;;
26622;SDS011;14254;50.968;5.366;2023-06-22T08:10:44;33.35;;;25.00;;
26622;SDS011;14254;50.968;5.366;2023-06-22T08:13:09;28.63;;;21.90;;
26622;SDS011;14254;50.968;5.366;2023-06-22T08:15:35;33.28;;;23.23;;
26622;SDS011;14254;50.968;5.366;2023-06-22T08:18:01;33.00;;;24.50;;
26622;SDS011;14254;50.968;5.366;2023-06-22T08:20:26;32.65;;;23.88;;
26622;SDS011;14254;50.968;5.366;2023-06-22T08:22:53;33.00;;;24.45;;
26622;SDS011;14254;50.968;5.366;2023-06-22T08:25:20;31.92;;;23.02;;
26622;SDS011;14254;50.968;5.366;2023-06-22T08:27:46;29.65;;;23.58;;
26622;SDS011;14254;50.968;5.366;2023-06-22T08:30:13;30.45;;;23.52;;
26622;SDS011;14254;50.968;5.366;2023-06-22T08:32:39;33.78;;;22.55;;
26622;SDS011;14254;50.968;5.366;2023-06-22T08:35:05;32.22;;;24.30;;
26622;SDS011;14254;50.968;5.366;2023-06-22T08:37:34;28.58;;;22.70;;
26622;SDS011;14254;50.968;5.366;2023-06-22T08:40:01;35.13;;;24.35;;
26622;SDS011;14254;50.968;5.366;2023-06-22T08:42:39;31.02;;;26.30;;
26622;SDS011;14254;50.968;5.366;2023-06-22T08:45:05;32.30;;;24.75;;
26622;SDS011;14254;50.968;5.366;2023-06-22T08:47:31;28.00;;;23.67;;
26622;SDS011;14254;50.968;5.366;2023-06-22T08:49:57;36.22;;;25.10;;
26622;SDS011;14254;50.968;5.366;2023-06-22T08:52:23;33.95;;;24.30;;
26622;SDS011;14254;50.968;5.366;2023-06-22T08:54:49;33.97;;;25.15;;
26622;SDS011;14254;50.968;5.366;2023-06-22T08:57:15;28.80;;;23.15;;
26622;SDS011;14254;50.968;5.366;2023-06-22T08:59:41;32.03;;;26.13;;
26622;SDS011;14254;50.968;5.366;2023-06-22T09:02:07;29.20;;;24.27;;
26622;SDS011;14254;50.968;5.366;2023-06-22T09:04:33;31.98;;;25.88;;
26622;SDS011;14254;50.968;5.366;2023-06-22T09:07:02;31.23;;;26.48;;
26622;SDS011;14254;50.968;5.366;2023-06-22T09:09:28;35.42;;;26.85;;
26622;SDS011;14254;50.968;5.366;2023-06-22T09:11:53;34.33;;;26.33;;
26622;SDS011;14254;50.968;5.366;2023-06-22T09:14:19;37.95;;;29.08;;
26622;SDS011;14254;50.968;5.366;2023-06-22T09:16:45;30.90;;;26.10;;
26622;SDS011;14254;50.968;5.366;2023-06-22T09:19:10;31.55;;;26.50;;
26622;SDS011;14254;50.968;5.366;2023-06-22T09:21:36;35.55;;;26.77;;
26622;SDS011;14254;50.968;5.366;2023-06-22T09:24:02;33.00;;;26.10;;
26622;SDS011;14254;50.968;5.366;2023-06-22T09:26:28;33.30;;;25.30;;
26622;SDS011;14254;50.968;5.366;2023-06-22T09:28:54;31.42;;;26.48;;
26622;SDS011;14254;50.968;5.366;2023-06-22T09:31:19;39.13;;;26.98;;
26622;SDS011;14254;50.968;5.366;2023-06-22T09:33:53;37.95;;;28.60;;
26622;SDS011;14254;50.968;5.366;2023-06-22T09:36:20;34.67;;;27.98;;
26622;SDS011;14254;50.968;5.366;2023-06-22T09:38:46;33.30;;;26.48;;
26622;SDS011;14254;50.968;5.366;2023-06-22T09:41:12;35.03;;;27.23;;
26622;SDS011;14254;50.968;5.366;2023-06-22T09:43:38;37.50;;;29.33;;
26622;SDS011;14254;50.968;5.366;2023-06-22T09:46:03;33.90;;;27.92;;
26622;SDS011;14254;50.968;5.366;2023-06-22T09:48:29;32.42;;;27.15;;
26622;SDS011;14254;50.968;5.366;2023-06-22T09:50:55;36.05;;;28.77;;
26622;SDS011;14254;50.968;5.366;2023-06-22T09:53:21;38.67;;;28.38;;
26622;SDS011;14254;50.968;5.366;2023-06-22T09:55:47;36.28;;;29.05;;
26622;SDS011;14254;50.968;5.366;2023-06-22T09:58:13;39.42;;;28.60;;
26622;SDS011;14254;50.968;5.366;2023-06-22T10:00:38;35.45;;;27.90;;
26622;SDS011;14254;50.968;5.366;2023-06-22T10:03:06;35.25;;;29.15;;
26622;SDS011;14254;50.968;5.366;2023-06-22T10:05:32;38.10;;;28.90;;
26622;SDS011;14254;50.968;5.366;2023-06-22T10:07:57;38.88;;;30.90;;
26622;SDS011;14254;50.968;5.366;2023-06-22T10:10:23;39.38;;;30.70;;
26622;SDS011;14254;50.968;5.366;2023-06-22T10:12:54;37.38;;;31.58;;
26622;SDS011;14254;50.968;5.366;2023-06-22T10:15:22;49.40;;;34.05;;
26622;SDS011;14254;50.968;5.366;2023-06-22T10:17:48;39.25;;;32.72;;
26622;SDS011;14254;50.968;5.366;2023-06-22T10:20:14;39.28;;;31.40;;
26622;SDS011;14254;50.968;5.366;2023-06-22T10:22:43;46.55;;;35.05;;
26622;SDS011;14254;50.968;5.366;2023-06-22T10:25:11;45.80;;;36.45;;
26622;SDS011;14254;50.968;5.366;2023-06-22T10:27:38;50.03;;;39.72;;
26622;SDS011;14254;50.968;5.366;2023-06-22T10:30:07;59.50;;;42.42;;
26622;SDS011;14254;50.968;5.366;2023-06-22T10:32:34;52.50;;;41.70;;
26622;SDS011;14254;50.968;5.366;2023-06-22T10:35:01;63.83;;;44.25;;
26622;SDS011;14254;50.968;5.366;2023-06-22T10:37:26;64.85;;;45.60;;
26622;SDS011;14254;50.968;5.366;2023-06-22T10:39:52;55.00;;;44.75;;
26622;SDS011;14254;50.968;5.366;2023-06-22T10:42:18;62.90;;;45.42;;
26622;SDS011;14254;50.968;5.366;2023-06-22T10:44:43;67.80;;;49.25;;
26622;SDS011;14254;50.968;5.366;2023-06-22T10:47:09;70.88;;;51.08;;
26622;SDS011;14254;50.968;5.366;2023-06-22T10:49:37;66.47;;;49.63;;
26622;SDS011;14254;50.968;5.366;2023-06-22T10:52:03;72.32;;;49.63;;
26622;SDS011;14254;50.968;5.366;2023-06-22T10:54:32;74.30;;;52.28;;
26622;SDS011;14254;50.968;5.366;2023-06-22T10:56:58;60.45;;;47.45;;
26622;SDS011;14254;50.968;5.366;2023-06-22T10:59:24;60.97;;;46.17;;
26622;SDS011;14254;50.968;5.366;2023-06-22T11:01:51;67.93;;;48.97;;
26622;SDS011;14254;50.968;5.366;2023-06-22T11:04:17;61.97;;;47.97;;
26622;SDS011;14254;50.968;5.366;2023-06-22T11:06:43;64.22;;;49.40;;
26622;SDS011;14254;50.968;5.366;2023-06-22T11:09:08;67.75;;;50.97;;
26622;SDS011;14254;50.968;5.366;2023-06-22T11:11:34;69.78;;;50.13;;
26622;SDS011;14254;50.968;5.366;2023-06-22T11:14:00;64.95;;;46.95;;
26622;SDS011;14254;50.968;5.366;2023-06-22T11:16:25;74.90;;;53.90;;
26622;SDS011;14254;50.968;5.366;2023-06-22T11:18:52;66.57;;;51.78;;
26622;SDS011;14254;50.968;5.366;2023-06-22T11:21:17;66.22;;;50.65;;
26622;SDS011;14254;50.968;5.366;2023-06-22T11:23:43;69.65;;;52.22;;
26622;SDS011;14254;50.968;5.366;2023-06-22T11:26:09;65.75;;;50.47;;
26622;SDS011;14254;50.968;5.366;2023-06-22T11:28:34;65.95;;;51.30;;
26622;SDS011;14254;50.968;5.366;2023-06-22T11:31:00;68.50;;;49.70;;
26622;SDS011;14254;50.968;5.366;2023-06-22T11:33:26;69.70;;;50.08;;
26622;SDS011;14254;50.968;5.366;2023-06-22T11:35:52;64.13;;;52.47;;
26622;SDS011;14254;50.968;5.366;2023-06-22T11:38:18;59.55;;;47.88;;
26622;SDS011;14254;50.968;5.366;2023-06-22T11:40:43;54.35;;;44.35;;
26622;SDS011;14254;50.968;5.366;2023-06-22T11:43:09;55.88;;;45.35;;
26622;SDS011;14254;50.968;5.366;2023-06-22T11:45:35;57.20;;;46.00;;
26622;SDS011;14254;50.968;5.366;2023-06-22T11:48:01;57.53;;;46.00;;
26622;SDS011;14254;50.968;5.366;2023-06-22T11:50:26;49.42;;;35.65;;
26622;SDS011;14254;50.968;5.366;2023-06-22T11:52:55;52.47;;;42.28;;
26622;SDS011;14254;50.968;5.366;2023-06-22T11:55:20;57.63;;;44.55;;
26622;SDS011;14254;50.968;5.366;2023-06-22T11:57:56;58.95;;;44.95;;
26622;SDS011;14254;50.968;5.366;2023-06-22T12:00:25;61.78;;;45.75;;
26622;SDS011;14254;50.968;5.366;2023-06-22T12:02:51;60.28;;;42.92;;
26622;SDS011;14254;50.968;5.366;2023-06-22T12:05:18;50.60;;;43.03;;
26622;SDS011;14254;50.968;5.366;2023-06-22T12:07:45;60.92;;;45.92;;
26622;SDS011;14254;50.968;5.366;2023-06-22T12:10:11;63.63;;;48.08;;
26622;SDS011;14254;50.968;5.366;2023-06-22T12:12:37;64.97;;;48.95;;
26622;SDS011;14254;50.968;5.366;2023-06-22T12:15:03;67.30;;;48.83;;
26622;SDS011;14254;50.968;5.366;2023-06-22T12:17:29;65.07;;;47.45;;
26622;SDS011;14254;50.968;5.366;2023-06-22T12:19:55;63.22;;;50.85;;
26622;SDS011;14254;50.968;5.366;2023-06-22T12:22:21;69.63;;;52.92;;
26622;SDS011;14254;50.968;5.366;2023-06-22T12:24:47;68.93;;;51.38;;
26622;SDS011;14254;50.968;5.366;2023-06-22T12:27:12;69.43;;;50.80;;
26622;SDS011;14254;50.968;5.366;2023-06-22T12:29:41;72.50;;;51.60;;
26622;SDS011;14254;50.968;5.366;2023-06-22T12:32:07;72.47;;;52.53;;
26622;SDS011;14254;50.968;5.366;2023-06-22T12:34:32;75.47;;;58.17;;
26622;SDS011;14254;50.968;5.366;2023-06-22T12:36:58;70.78;;;53.65;;
26622;SDS011;14254;50.968;5.366;2023-06-22T12:39:24;70.18;;;55.35;;
26622;SDS011;14254;50.968;5.366;2023-06-22T12:41:49;69.47;;;52.40;;
26622;SDS011;14254;50.968;5.366;2023-06-22T12:44:15;74.78;;;55.72;;
26622;SDS011;14254;50.968;5.366;2023-06-22T12:46:41;74.65;;;55.25;;
26622;SDS011;14254;50.968;5.366;2023-06-22T12:49:06;71.47;;;51.40;;
26622;SDS011;14254;50.968;5.366;2023-06-22T12:51:32;79.63;;;58.35;;
26622;SDS011;14254;50.968;5.366;2023-06-22T12:53:58;74.75;;;57.65;;
26622;SDS011;14254;50.968;5.366;2023-06-22T12:56:24;79.53;;;58.65;;
26622;SDS011;14254;50.968;5.366;2023-06-22T12:58:50;74.63;;;56.00;;
26622;SDS011;14254;50.968;5.366;2023-06-22T13:01:15;73.47;;;58.58;;
26622;SDS011;14254;50.968;5.366;2023-06-22T13:03:43;72.80;;;55.40;;
26622;SDS011;14254;50.968;5.366;2023-06-22T13:06:08;73.20;;;55.20;;
26622;SDS011;14254;50.968;5.366;2023-06-22T13:08:34;69.10;;;50.47;;
26622;SDS011;14254;50.968;5.366;2023-06-22T13:11:00;73.88;;;50.45;;
26622;SDS011;14254;50.968;5.366;2023-06-22T13:13:25;63.05;;;46.40;;
26622;SDS011;14254;50.968;5.366;2023-06-22T13:15:54;66.20;;;49.28;;
26622;SDS011;14254;50.968;5.366;2023-06-22T13:18:20;73.78;;;52.85;;
26622;SDS011;14254;50.968;5.366;2023-06-22T13:20:46;65.35;;;45.15;;
26622;SDS011;14254;50.968;5.366;2023-06-22T13:23:13;59.17;;;45.10;;
26622;SDS011;14254;50.968;5.366;2023-06-22T13:25:38;54.05;;;43.50;;
26622;SDS011;14254;50.968;5.366;2023-06-22T13:28:04;59.78;;;41.72;;
26622;SDS011;14254;50.968;5.366;2023-06-22T13:30:30;55.67;;;41.58;;
26622;SDS011;14254;50.968;5.366;2023-06-22T13:32:56;57.38;;;41.58;;
26622;SDS011;14254;50.968;5.366;2023-06-22T13:35:22;50.03;;;35.50;;
26622;SDS011;14254;50.968;5.366;2023-06-22T13:37:48;50.88;;;39.28;;
26622;SDS011;14254;50.968;5.366;2023-06-22T13:40:14;49.42;;;36.40;;
26622;SDS011;14254;50.968;5.366;2023-06-22T13:42:39;59.17;;;40.58;;
26622;SDS011;14254;50.968;5.366;2023-06-22T13:45:06;55.22;;;41.97;;
26622;SDS011;14254;50.968;5.366;2023-06-22T13:47:32;54.72;;;42.70;;
26622;SDS011;14254;50.968;5.366;2023-06-22T13:49:58;63.42;;;43.67;;
26622;SDS011;14254;50.968;5.366;2023-06-22T13:52:24;57.55;;;41.33;;
26622;SDS011;14254;50.968;5.366;2023-06-22T13:54:50;68.85;;;48.22;;
26622;SDS011;14254;50.968;5.366;2023-06-22T13:57:15;74.70;;;50.45;;
26622;SDS011;14254;50.968;5.366;2023-06-22T13:59:41;65.38;;;47.78;;
26622;SDS011;14254;50.968;5.366;2023-06-22T14:02:07;72.28;;;48.95;;
26622;SDS011;14254;50.968;5.366;2023-06-22T14:04:32;79.25;;;53.22;;
26622;SDS011;14254;50.968;5.366;2023-06-22T14:06:58;64.38;;;45.65;;
26622;SDS011;14254;50.968;5.366;2023-06-22T14:09:24;74.88;;;51.65;;
26622;SDS011;14254;50.968;5.366;2023-06-22T14:11:50;78.78;;;54.25;;
26622;SDS011;14254;50.968;5.366;2023-06-22T14:14:16;78.80;;;54.42;;
26622;SDS011;14254;50.968;5.366;2023-06-22T14:16:41;80.47;;;56.22;;
26622;SDS011;14254;50.968;5.366;2023-06-22T14:19:07;74.32;;;52.83;;
26622;SDS011;14254;50.968;5.366;2023-06-22T14:21:33;76.07;;;52.22;;
26622;SDS011;14254;50.968;5.366;2023-06-22T14:23:58;68.40;;;48.50;;
26622;SDS011;14254;50.968;5.366;2023-06-22T14:26:24;81.75;;;58.47;;
26622;SDS011;14254;50.968;5.366;2023-06-22T14:28:49;77.18;;;51.78;;